Pagina principale
METAR-TAF:

METAR-TAF

Aeroporti :

Podgorica, Montenegro

Aeroporto di Podgorica

latitudine: 42-26N, longitudine: 019-17E, altezza: 53 m

Osservazione

Il bollettino è stato emesso 9 minuti fa, alle 08:00 UTC
Vento 12 kt da nord
Temperature 23°C
Umidità 38%
Pressione 1015 hPa
Visibilità 10 km o più
Poco nuvoloso ad un'altezza di 4000 ft
Nubi sparse ad un'altezza di 9000 ft

METAR: LYPG 270800Z 36012KT 9999 FEW040 SCT090 23/08 Q1015 NOSIG

Ora: 10:09 (08:09 UTC)

Previsione

Il bollettino è stato emesso 3 ore e 9 minuti fa, alle 05:00 UTC
Previsione valida dal 27 alle 06 UTC al 28 alle 06 UTC
Vento 8 kt da nord
Visibilità 10 km o più
Poco nuvoloso ad un'altezza di 4000 ft
Temporaneamente
dal 27 alle 06 UTC al 28 alle 06 UTC
Vento 18 kt da nord/nord-est con raffiche fino a 28 kt

TAF: LYPG 270500Z 2706/2806 36008KT 9999 FEW040 TX26/2713Z TN16/2804Z TEMPO 2706/2806 02018G28KT

Osservazioni e previsioni meteorologiche di più di 4000 aeroporti (messaggi METAR e TAF).

Le stazioni disponibili sono rappresentate dai dischi gialli e rossi sulla carta.

Puntare il mouse per vedere il nome della stazione.

Clicca sopra per visualizzare le osservazioni e previsioni meteorologiche.

Per cambiare la mappa : fare clic sui pulsanti verdi con una croce nera per ingrandire, il pulsante verde con un trattino per diminuire, o sulla freccia verde per le mappe adiacenti.


METAR-TAF: